sensor_id;sensor_type;location;lat;lon;timestamp;P1;durP1;ratioP1;P2;durP2;ratioP2
70367;SDS011;57789;53.868;10.728;2023-02-15T00:01:04;46.20;;;18.93;;
70367;SDS011;57789;53.868;10.728;2023-02-15T00:03:34;41.67;;;17.27;;
70367;SDS011;57789;53.868;10.728;2023-02-15T00:06:00;35.53;;;17.17;;
70367;SDS011;57789;53.868;10.728;2023-02-15T00:08:26;32.90;;;17.17;;
70367;SDS011;57789;53.868;10.728;2023-02-15T00:10:52;30.00;;;16.17;;
70367;SDS011;57789;53.868;10.728;2023-02-15T00:13:27;32.00;;;16.47;;
70367;SDS011;57789;53.868;10.728;2023-02-15T00:15:53;35.70;;;16.43;;
70367;SDS011;57789;53.868;10.728;2023-02-15T00:18:18;29.00;;;14.90;;
70367;SDS011;57789;53.868;10.728;2023-02-15T00:20:44;36.27;;;19.27;;
70367;SDS011;57789;53.868;10.728;2023-02-15T00:23:10;35.27;;;16.80;;
70367;SDS011;57789;53.868;10.728;2023-02-15T00:25:35;36.03;;;17.00;;
70367;SDS011;57789;53.868;10.728;2023-02-15T00:28:01;35.00;;;16.70;;
70367;SDS011;57789;53.868;10.728;2023-02-15T00:30:26;39.13;;;18.10;;
70367;SDS011;57789;53.868;10.728;2023-02-15T00:32:52;34.07;;;17.17;;
70367;SDS011;57789;53.868;10.728;2023-02-15T00:35:18;37.40;;;17.47;;
70367;SDS011;57789;53.868;10.728;2023-02-15T00:37:43;27.77;;;15.47;;
70367;SDS011;57789;53.868;10.728;2023-02-15T00:40:09;37.37;;;16.87;;
70367;SDS011;57789;53.868;10.728;2023-02-15T00:42:35;36.70;;;16.90;;
70367;SDS011;57789;53.868;10.728;2023-02-15T00:45:02;81.23;;;35.53;;
70367;SDS011;57789;53.868;10.728;2023-02-15T00:47:29;92.30;;;40.80;;
70367;SDS011;57789;53.868;10.728;2023-02-15T00:49:56;89.60;;;38.60;;
70367;SDS011;57789;53.868;10.728;2023-02-15T00:52:22;75.10;;;35.90;;
70367;SDS011;57789;53.868;10.728;2023-02-15T00:54:47;48.90;;;23.40;;
70367;SDS011;57789;53.868;10.728;2023-02-15T00:57:13;52.60;;;24.27;;
70367;SDS011;57789;53.868;10.728;2023-02-15T00:59:39;45.87;;;22.10;;
70367;SDS011;57789;53.868;10.728;2023-02-15T01:02:04;52.33;;;25.40;;
70367;SDS011;57789;53.868;10.728;2023-02-15T01:04:30;46.93;;;22.50;;
70367;SDS011;57789;53.868;10.728;2023-02-15T01:06:55;45.53;;;23.30;;
70367;SDS011;57789;53.868;10.728;2023-02-15T01:09:21;55.63;;;25.17;;
70367;SDS011;57789;53.868;10.728;2023-02-15T01:11:47;43.37;;;20.60;;
70367;SDS011;57789;53.868;10.728;2023-02-15T01:14:12;37.73;;;17.90;;
70367;SDS011;57789;53.868;10.728;2023-02-15T01:16:41;41.00;;;18.60;;
70367;SDS011;57789;53.868;10.728;2023-02-15T01:19:07;40.30;;;19.03;;
70367;SDS011;57789;53.868;10.728;2023-02-15T01:21:32;38.50;;;17.97;;
70367;SDS011;57789;53.868;10.728;2023-02-15T01:23:59;66.03;;;33.63;;
70367;SDS011;57789;53.868;10.728;2023-02-15T01:26:26;102.30;;;42.07;;
70367;SDS011;57789;53.868;10.728;2023-02-15T01:28:52;60.00;;;25.63;;
70367;SDS011;57789;53.868;10.728;2023-02-15T01:31:19;47.10;;;21.57;;
70367;SDS011;57789;53.868;10.728;2023-02-15T01:33:46;83.07;;;36.33;;
70367;SDS011;57789;53.868;10.728;2023-02-15T01:36:13;56.93;;;25.93;;
70367;SDS011;57789;53.868;10.728;2023-02-15T01:38:39;48.13;;;25.27;;
70367;SDS011;57789;53.868;10.728;2023-02-15T01:41:05;50.73;;;23.07;;
70367;SDS011;57789;53.868;10.728;2023-02-15T01:43:53;50.27;;;21.40;;
70367;SDS011;57789;53.868;10.728;2023-02-15T01:46:29;42.77;;;20.00;;
70367;SDS011;57789;53.868;10.728;2023-02-15T01:49:01;42.13;;;18.97;;
70367;SDS011;57789;53.868;10.728;2023-02-15T01:51:36;43.67;;;18.03;;
70367;SDS011;57789;53.868;10.728;2023-02-15T01:54:27;74.03;;;33.80;;
70367;SDS011;57789;53.868;10.728;2023-02-15T01:56:54;107.33;;;47.60;;
70367;SDS011;57789;53.868;10.728;2023-02-15T01:59:25;42.10;;;18.70;;
70367;SDS011;57789;53.868;10.728;2023-02-15T02:01:52;83.73;;;36.57;;
70367;SDS011;57789;53.868;10.728;2023-02-15T02:06:56;49.17;;;23.70;;
70367;SDS011;57789;53.868;10.728;2023-02-15T02:09:23;46.23;;;22.00;;
70367;SDS011;57789;53.868;10.728;2023-02-15T02:11:49;51.50;;;23.33;;
70367;SDS011;57789;53.868;10.728;2023-02-15T02:14:15;48.83;;;22.13;;
70367;SDS011;57789;53.868;10.728;2023-02-15T02:24:32;34.57;;;16.83;;
70367;SDS011;57789;53.868;10.728;2023-02-15T02:32:53;34.57;;;15.83;;
70367;SDS011;57789;53.868;10.728;2023-02-15T02:35:27;34.97;;;16.60;;
70367;SDS011;57789;53.868;10.728;2023-02-15T02:43:33;57.83;;;26.00;;
70367;SDS011;57789;53.868;10.728;2023-02-15T02:46:17;93.23;;;40.77;;
70367;SDS011;57789;53.868;10.728;2023-02-15T02:49:08;95.57;;;37.23;;
70367;SDS011;57789;53.868;10.728;2023-02-15T02:51:33;211.17;;;86.13;;
70367;SDS011;57789;53.868;10.728;2023-02-15T02:54:00;166.83;;;69.60;;
70367;SDS011;57789;53.868;10.728;2023-02-15T03:02:04;57.63;;;26.30;;
70367;SDS011;57789;53.868;10.728;2023-02-15T03:04:38;98.30;;;40.63;;
70367;SDS011;57789;53.868;10.728;2023-02-15T03:07:09;66.70;;;31.20;;
70367;SDS011;57789;53.868;10.728;2023-02-15T03:09:47;68.17;;;28.83;;
70367;SDS011;57789;53.868;10.728;2023-02-15T03:12:17;54.00;;;23.83;;
70367;SDS011;57789;53.868;10.728;2023-02-15T03:14:50;68.00;;;27.80;;
70367;SDS011;57789;53.868;10.728;2023-02-15T03:17:18;63.17;;;27.87;;
70367;SDS011;57789;53.868;10.728;2023-02-15T03:19:47;161.27;;;63.00;;
70367;SDS011;57789;53.868;10.728;2023-02-15T03:22:17;61.63;;;28.03;;
70367;SDS011;57789;53.868;10.728;2023-02-15T03:24:59;109.20;;;46.13;;
70367;SDS011;57789;53.868;10.728;2023-02-15T03:27:30;87.43;;;39.13;;
70367;SDS011;57789;53.868;10.728;2023-02-15T03:30:01;96.10;;;39.03;;
70367;SDS011;57789;53.868;10.728;2023-02-15T03:32:28;61.13;;;26.57;;
70367;SDS011;57789;53.868;10.728;2023-02-15T03:34:57;46.00;;;21.63;;
70367;SDS011;57789;53.868;10.728;2023-02-15T03:40:03;38.67;;;19.60;;
70367;SDS011;57789;53.868;10.728;2023-02-15T03:43:10;72.10;;;33.27;;
70367;SDS011;57789;53.868;10.728;2023-02-15T03:45:47;127.90;;;53.43;;
70367;SDS011;57789;53.868;10.728;2023-02-15T03:48:27;61.93;;;28.90;;
70367;SDS011;57789;53.868;10.728;2023-02-15T03:51:09;95.00;;;41.10;;
70367;SDS011;57789;53.868;10.728;2023-02-15T03:53:56;100.80;;;42.80;;
70367;SDS011;57789;53.868;10.728;2023-02-15T03:56:24;91.43;;;40.73;;
70367;SDS011;57789;53.868;10.728;2023-02-15T03:58:50;107.20;;;47.37;;
70367;SDS011;57789;53.868;10.728;2023-02-15T04:01:36;60.50;;;28.10;;
70367;SDS011;57789;53.868;10.728;2023-02-15T04:05:04;78.00;;;34.60;;
70367;SDS011;57789;53.868;10.728;2023-02-15T04:07:12;133.00;;;57.20;;
70367;SDS011;57789;53.868;10.728;2023-02-15T04:09:38;132.90;;;58.33;;
70367;SDS011;57789;53.868;10.728;2023-02-15T04:12:22;99.77;;;42.60;;
70367;SDS011;57789;53.868;10.728;2023-02-15T04:14:48;79.07;;;34.00;;
70367;SDS011;57789;53.868;10.728;2023-02-15T04:17:32;53.97;;;25.00;;
70367;SDS011;57789;53.868;10.728;2023-02-15T04:19:58;74.03;;;33.93;;
70367;SDS011;57789;53.868;10.728;2023-02-15T04:22:42;66.00;;;29.50;;
70367;SDS011;57789;53.868;10.728;2023-02-15T04:25:27;68.23;;;29.30;;
70367;SDS011;57789;53.868;10.728;2023-02-15T04:27:54;50.80;;;23.87;;
70367;SDS011;57789;53.868;10.728;2023-02-15T04:30:21;48.57;;;21.90;;
70367;SDS011;57789;53.868;10.728;2023-02-15T04:32:49;49.83;;;24.07;;
70367;SDS011;57789;53.868;10.728;2023-02-15T04:35:15;41.43;;;22.03;;
70367;SDS011;57789;53.868;10.728;2023-02-15T04:37:41;39.60;;;20.43;;
70367;SDS011;57789;53.868;10.728;2023-02-15T04:40:09;41.50;;;21.13;;
70367;SDS011;57789;53.868;10.728;2023-02-15T04:42:38;55.10;;;21.67;;
70367;SDS011;57789;53.868;10.728;2023-02-15T04:45:03;41.73;;;21.00;;
70367;SDS011;57789;53.868;10.728;2023-02-15T04:47:29;42.97;;;20.30;;
70367;SDS011;57789;53.868;10.728;2023-02-15T04:49:55;36.80;;;19.97;;
70367;SDS011;57789;53.868;10.728;2023-02-15T04:52:21;43.30;;;21.30;;
70367;SDS011;57789;53.868;10.728;2023-02-15T04:54:47;39.57;;;19.27;;
70367;SDS011;57789;53.868;10.728;2023-02-15T04:57:12;41.73;;;20.67;;
70367;SDS011;57789;53.868;10.728;2023-02-15T04:59:38;48.63;;;23.53;;
70367;SDS011;57789;53.868;10.728;2023-02-15T05:02:04;38.00;;;20.87;;
70367;SDS011;57789;53.868;10.728;2023-02-15T05:04:30;52.00;;;25.50;;
70367;SDS011;57789;53.868;10.728;2023-02-15T05:06:55;46.30;;;22.73;;
70367;SDS011;57789;53.868;10.728;2023-02-15T05:09:21;53.80;;;25.07;;
70367;SDS011;57789;53.868;10.728;2023-02-15T05:11:47;51.23;;;24.90;;
70367;SDS011;57789;53.868;10.728;2023-02-15T05:14:12;55.07;;;26.43;;
70367;SDS011;57789;53.868;10.728;2023-02-15T05:16:38;54.13;;;24.53;;
70367;SDS011;57789;53.868;10.728;2023-02-15T05:19:04;49.37;;;23.13;;
70367;SDS011;57789;53.868;10.728;2023-02-15T05:21:30;66.13;;;23.70;;
70367;SDS011;57789;53.868;10.728;2023-02-15T05:23:57;51.47;;;26.00;;
70367;SDS011;57789;53.868;10.728;2023-02-15T05:26:23;57.40;;;23.70;;
70367;SDS011;57789;53.868;10.728;2023-02-15T05:29:08;103.83;;;26.50;;
70367;SDS011;57789;53.868;10.728;2023-02-15T05:31:34;87.80;;;25.57;;
70367;SDS011;57789;53.868;10.728;2023-02-15T05:34:00;57.23;;;25.00;;
70367;SDS011;57789;53.868;10.728;2023-02-15T05:36:26;69.77;;;25.30;;
70367;SDS011;57789;53.868;10.728;2023-02-15T05:38:53;59.33;;;23.57;;
70367;SDS011;57789;53.868;10.728;2023-02-15T05:41:20;85.10;;;25.97;;
70367;SDS011;57789;53.868;10.728;2023-02-15T05:43:46;79.10;;;24.07;;
70367;SDS011;57789;53.868;10.728;2023-02-15T05:46:11;113.13;;;25.47;;
70367;SDS011;57789;53.868;10.728;2023-02-15T05:48:37;73.53;;;24.70;;
70367;SDS011;57789;53.868;10.728;2023-02-15T05:53:38;55.70;;;23.43;;
70367;SDS011;57789;53.868;10.728;2023-02-15T05:56:05;61.27;;;20.80;;
70367;SDS011;57789;53.868;10.728;2023-02-15T05:58:33;61.83;;;22.30;;
70367;SDS011;57789;53.868;10.728;2023-02-15T06:01:08;94.13;;;23.13;;
70367;SDS011;57789;53.868;10.728;2023-02-15T06:03:36;61.67;;;21.87;;
70367;SDS011;57789;53.868;10.728;2023-02-15T06:06:02;130.83;;;22.80;;
70367;SDS011;57789;53.868;10.728;2023-02-15T06:08:29;79.20;;;23.63;;
70367;SDS011;57789;53.868;10.728;2023-02-15T06:10:56;74.77;;;21.00;;
70367;SDS011;57789;53.868;10.728;2023-02-15T06:13:21;69.43;;;22.33;;
70367;SDS011;57789;53.868;10.728;2023-02-15T06:15:47;97.97;;;23.30;;
70367;SDS011;57789;53.868;10.728;2023-02-15T06:18:13;85.87;;;22.13;;
70367;SDS011;57789;53.868;10.728;2023-02-15T06:20:38;45.40;;;21.97;;
70367;SDS011;57789;53.868;10.728;2023-02-15T06:23:04;71.37;;;24.17;;
70367;SDS011;57789;53.868;10.728;2023-02-15T06:25:30;118.87;;;23.50;;
70367;SDS011;57789;53.868;10.728;2023-02-15T06:27:55;100.90;;;24.83;;
70367;SDS011;57789;53.868;10.728;2023-02-15T06:30:21;64.87;;;21.03;;
70367;SDS011;57789;53.868;10.728;2023-02-15T06:32:47;49.77;;;20.20;;
70367;SDS011;57789;53.868;10.728;2023-02-15T06:35:13;58.70;;;21.87;;
70367;SDS011;57789;53.868;10.728;2023-02-15T06:37:38;87.93;;;24.33;;
70367;SDS011;57789;53.868;10.728;2023-02-15T06:40:04;75.30;;;25.33;;
70367;SDS011;57789;53.868;10.728;2023-02-15T06:42:30;96.40;;;22.17;;
70367;SDS011;57789;53.868;10.728;2023-02-15T06:44:56;57.43;;;23.90;;
70367;SDS011;57789;53.868;10.728;2023-02-15T06:47:22;78.70;;;22.47;;
70367;SDS011;57789;53.868;10.728;2023-02-15T06:49:47;58.33;;;21.77;;
70367;SDS011;57789;53.868;10.728;2023-02-15T06:52:13;84.83;;;26.10;;
70367;SDS011;57789;53.868;10.728;2023-02-15T06:54:39;117.63;;;23.60;;
70367;SDS011;57789;53.868;10.728;2023-02-15T06:57:04;72.73;;;21.80;;
70367;SDS011;57789;53.868;10.728;2023-02-15T06:59:30;46.53;;;21.60;;
70367;SDS011;57789;53.868;10.728;2023-02-15T07:01:56;92.77;;;24.03;;
70367;SDS011;57789;53.868;10.728;2023-02-15T07:04:21;51.33;;;18.17;;
70367;SDS011;57789;53.868;10.728;2023-02-15T07:06:47;48.10;;;19.60;;
70367;SDS011;57789;53.868;10.728;2023-02-15T07:09:13;40.20;;;19.40;;
70367;SDS011;57789;53.868;10.728;2023-02-15T07:11:40;42.07;;;19.90;;
70367;SDS011;57789;53.868;10.728;2023-02-15T07:14:24;89.37;;;22.10;;
70367;SDS011;57789;53.868;10.728;2023-02-15T07:16:49;31.40;;;17.87;;
70367;SDS011;57789;53.868;10.728;2023-02-15T07:19:15;45.27;;;20.23;;
70367;SDS011;57789;53.868;10.728;2023-02-15T07:21:41;61.07;;;18.77;;
70367;SDS011;57789;53.868;10.728;2023-02-15T07:24:06;48.13;;;19.40;;
70367;SDS011;57789;53.868;10.728;2023-02-15T07:26:32;75.13;;;22.10;;
70367;SDS011;57789;53.868;10.728;2023-02-15T07:28:58;97.10;;;21.97;;
70367;SDS011;57789;53.868;10.728;2023-02-15T07:31:24;117.43;;;21.57;;
70367;SDS011;57789;53.868;10.728;2023-02-15T07:33:49;53.43;;;20.27;;
70367;SDS011;57789;53.868;10.728;2023-02-15T07:36:15;37.50;;;18.43;;
70367;SDS011;57789;53.868;10.728;2023-02-15T07:38:41;63.43;;;19.77;;
70367;SDS011;57789;53.868;10.728;2023-02-15T07:41:08;88.07;;;23.67;;
70367;SDS011;57789;53.868;10.728;2023-02-15T07:43:36;112.90;;;19.40;;
70367;SDS011;57789;53.868;10.728;2023-02-15T07:46:08;86.70;;;19.50;;
70367;SDS011;57789;53.868;10.728;2023-02-15T07:48:36;51.43;;;20.10;;
70367;SDS011;57789;53.868;10.728;2023-02-15T07:51:04;51.83;;;18.20;;
70367;SDS011;57789;53.868;10.728;2023-02-15T07:53:32;61.87;;;15.13;;
70367;SDS011;57789;53.868;10.728;2023-02-15T07:56:02;62.90;;;18.93;;
70367;SDS011;57789;53.868;10.728;2023-02-15T07:58:29;40.87;;;18.00;;
70367;SDS011;57789;53.868;10.728;2023-02-15T08:01:15;46.80;;;18.83;;
70367;SDS011;57789;53.868;10.728;2023-02-15T08:03:42;56.27;;;19.20;;
70367;SDS011;57789;53.868;10.728;2023-02-15T08:06:08;70.80;;;17.07;;
70367;SDS011;57789;53.868;10.728;2023-02-15T08:08:36;44.47;;;18.10;;
70367;SDS011;57789;53.868;10.728;2023-02-15T08:13:54;53.03;;;17.00;;
70367;SDS011;57789;53.868;10.728;2023-02-15T08:16:27;60.13;;;18.43;;
70367;SDS011;57789;53.868;10.728;2023-02-15T08:21:44;39.90;;;17.20;;
70367;SDS011;57789;53.868;10.728;2023-02-15T08:24:12;94.00;;;17.77;;
70367;SDS011;57789;53.868;10.728;2023-02-15T08:26:39;68.50;;;19.17;;
70367;SDS011;57789;53.868;10.728;2023-02-15T08:29:06;115.87;;;20.20;;
70367;SDS011;57789;53.868;10.728;2023-02-15T08:31:33;43.70;;;18.30;;
70367;SDS011;57789;53.868;10.728;2023-02-15T08:33:59;77.30;;;17.80;;
70367;SDS011;57789;53.868;10.728;2023-02-15T08:36:26;84.10;;;17.77;;
70367;SDS011;57789;53.868;10.728;2023-02-15T08:38:54;52.57;;;18.30;;
70367;SDS011;57789;53.868;10.728;2023-02-15T08:41:23;39.13;;;18.40;;
70367;SDS011;57789;53.868;10.728;2023-02-15T08:43:54;39.00;;;18.60;;
70367;SDS011;57789;53.868;10.728;2023-02-15T08:46:23;52.23;;;19.20;;
70367;SDS011;57789;53.868;10.728;2023-02-15T08:48:50;83.67;;;18.50;;
70367;SDS011;57789;53.868;10.728;2023-02-15T08:51:17;43.10;;;17.50;;
70367;SDS011;57789;53.868;10.728;2023-02-15T08:53:46;43.50;;;17.87;;
70367;SDS011;57789;53.868;10.728;2023-02-15T08:56:16;34.00;;;16.57;;
70367;SDS011;57789;53.868;10.728;2023-02-15T08:58:43;46.17;;;16.70;;
70367;SDS011;57789;53.868;10.728;2023-02-15T09:01:10;63.50;;;17.63;;
70367;SDS011;57789;53.868;10.728;2023-02-15T09:03:38;51.40;;;18.83;;
70367;SDS011;57789;53.868;10.728;2023-02-15T09:06:04;38.67;;;16.60;;
70367;SDS011;57789;53.868;10.728;2023-02-15T09:08:30;38.13;;;15.30;;
70367;SDS011;57789;53.868;10.728;2023-02-15T09:13:38;32.03;;;15.33;;
70367;SDS011;57789;53.868;10.728;2023-02-15T09:16:06;26.30;;;15.63;;
70367;SDS011;57789;53.868;10.728;2023-02-15T09:18:34;31.27;;;15.63;;
70367;SDS011;57789;53.868;10.728;2023-02-15T09:21:09;26.23;;;15.20;;
70367;SDS011;57789;53.868;10.728;2023-02-15T09:23:38;81.53;;;17.60;;
70367;SDS011;57789;53.868;10.728;2023-02-15T09:26:06;22.00;;;13.47;;
70367;SDS011;57789;53.868;10.728;2023-02-15T09:28:33;51.20;;;15.03;;
70367;SDS011;57789;53.868;10.728;2023-02-15T09:33:34;31.60;;;16.13;;
70367;SDS011;57789;53.868;10.728;2023-02-15T09:36:01;65.83;;;16.90;;
70367;SDS011;57789;53.868;10.728;2023-02-15T09:38:28;47.23;;;16.13;;
70367;SDS011;57789;53.868;10.728;2023-02-15T09:41:11;29.13;;;15.90;;
70367;SDS011;57789;53.868;10.728;2023-02-15T09:52:20;61.77;;;16.53;;
70367;SDS011;57789;53.868;10.728;2023-02-15T09:55:16;69.87;;;17.30;;
70367;SDS011;57789;53.868;10.728;2023-02-15T10:01:28;28.20;;;16.13;;
70367;SDS011;57789;53.868;10.728;2023-02-15T10:04:29;59.40;;;17.53;;
70367;SDS011;57789;53.868;10.728;2023-02-15T10:07:26;38.93;;;14.80;;
70367;SDS011;57789;53.868;10.728;2023-02-15T10:10:06;44.43;;;16.60;;
70367;SDS011;57789;53.868;10.728;2023-02-15T10:18:41;31.20;;;17.50;;
70367;SDS011;57789;53.868;10.728;2023-02-15T10:26:54;40.40;;;17.30;;
70367;SDS011;57789;53.868;10.728;2023-02-15T10:29:37;57.20;;;19.17;;
70367;SDS011;57789;53.868;10.728;2023-02-15T10:32:27;44.77;;;18.87;;
70367;SDS011;57789;53.868;10.728;2023-02-15T10:35:01;40.57;;;19.30;;
70367;SDS011;57789;53.868;10.728;2023-02-15T10:40:22;38.43;;;18.43;;
70367;SDS011;57789;53.868;10.728;2023-02-15T10:43:05;41.77;;;18.73;;
70367;SDS011;57789;53.868;10.728;2023-02-15T10:54:36;55.07;;;18.43;;
70367;SDS011;57789;53.868;10.728;2023-02-15T10:57:26;39.43;;;18.40;;
70367;SDS011;57789;53.868;10.728;2023-02-15T11:00:23;28.13;;;17.33;;
70367;SDS011;57789;53.868;10.728;2023-02-15T11:06:01;32.00;;;15.93;;
70367;SDS011;57789;53.868;10.728;2023-02-15T11:08:34;146.40;;;20.10;;
70367;SDS011;57789;53.868;10.728;2023-02-15T11:11:08;43.23;;;18.70;;
70367;SDS011;57789;53.868;10.728;2023-02-15T11:13:41;33.60;;;18.43;;
70367;SDS011;57789;53.868;10.728;2023-02-15T11:16:15;37.83;;;16.67;;
70367;SDS011;57789;53.868;10.728;2023-02-15T11:18:57;37.63;;;17.77;;
70367;SDS011;57789;53.868;10.728;2023-02-15T11:21:39;52.53;;;17.77;;
70367;SDS011;57789;53.868;10.728;2023-02-15T11:24:19;29.10;;;17.10;;
70367;SDS011;57789;53.868;10.728;2023-02-15T11:26:50;42.70;;;17.90;;
70367;SDS011;57789;53.868;10.728;2023-02-15T11:30:02;28.77;;;16.03;;
70367;SDS011;57789;53.868;10.728;2023-02-15T11:32:43;32.27;;;17.47;;
70367;SDS011;57789;53.868;10.728;2023-02-15T11:37:43;45.27;;;16.67;;
70367;SDS011;57789;53.868;10.728;2023-02-15T11:40:41;34.77;;;17.60;;
70367;SDS011;57789;53.868;10.728;2023-02-15T11:43:17;30.40;;;16.63;;
70367;SDS011;57789;53.868;10.728;2023-02-15T11:45:54;34.53;;;17.30;;
70367;SDS011;57789;53.868;10.728;2023-02-15T11:48:20;28.30;;;17.27;;
70367;SDS011;57789;53.868;10.728;2023-02-15T11:50:45;53.10;;;20.40;;
70367;SDS011;57789;53.868;10.728;2023-02-15T11:53:15;48.50;;;24.80;;
70367;SDS011;57789;53.868;10.728;2023-02-15T11:55:43;55.57;;;19.83;;
70367;SDS011;57789;53.868;10.728;2023-02-15T12:00:54;52.03;;;19.60;;
70367;SDS011;57789;53.868;10.728;2023-02-15T12:06:13;41.97;;;23.87;;
70367;SDS011;57789;53.868;10.728;2023-02-15T12:08:45;122.60;;;20.90;;
70367;SDS011;57789;53.868;10.728;2023-02-15T12:11:19;48.77;;;19.43;;
70367;SDS011;57789;53.868;10.728;2023-02-15T12:16:22;48.30;;;20.37;;
70367;SDS011;57789;53.868;10.728;2023-02-15T12:18:49;34.13;;;18.60;;
70367;SDS011;57789;53.868;10.728;2023-02-15T12:21:24;36.37;;;19.90;;
70367;SDS011;57789;53.868;10.728;2023-02-15T12:23:56;42.80;;;20.03;;
70367;SDS011;57789;53.868;10.728;2023-02-15T12:26:33;27.80;;;17.67;;
70367;SDS011;57789;53.868;10.728;2023-02-15T12:29:01;37.67;;;22.20;;
70367;SDS011;57789;53.868;10.728;2023-02-15T12:31:38;40.97;;;23.07;;
70367;SDS011;57789;53.868;10.728;2023-02-15T12:34:12;54.57;;;27.00;;
70367;SDS011;57789;53.868;10.728;2023-02-15T12:36:45;44.37;;;23.03;;
70367;SDS011;57789;53.868;10.728;2023-02-15T12:39:37;40.57;;;24.03;;
70367;SDS011;57789;53.868;10.728;2023-02-15T12:42:18;64.47;;;33.33;;
70367;SDS011;57789;53.868;10.728;2023-02-15T12:44:55;36.50;;;19.50;;
70367;SDS011;57789;53.868;10.728;2023-02-15T12:47:21;36.40;;;21.00;;
70367;SDS011;57789;53.868;10.728;2023-02-15T12:52:41;40.87;;;21.50;;
70367;SDS011;57789;53.868;10.728;2023-02-15T12:55:26;44.00;;;22.53;;
70367;SDS011;57789;53.868;10.728;2023-02-15T13:00:43;70.87;;;30.10;;
70367;SDS011;57789;53.868;10.728;2023-02-15T13:03:17;92.07;;;45.40;;
70367;SDS011;57789;53.868;10.728;2023-02-15T13:05:45;83.87;;;38.70;;
70367;SDS011;57789;53.868;10.728;2023-02-15T13:08:16;50.73;;;27.87;;
70367;SDS011;57789;53.868;10.728;2023-02-15T13:13:35;51.63;;;27.50;;
70367;SDS011;57789;53.868;10.728;2023-02-15T13:16:12;54.27;;;28.87;;
70367;SDS011;57789;53.868;10.728;2023-02-15T13:18:44;60.53;;;22.57;;
70367;SDS011;57789;53.868;10.728;2023-02-15T13:21:25;43.77;;;22.93;;
70367;SDS011;57789;53.868;10.728;2023-02-15T13:24:01;73.37;;;35.73;;
70367;SDS011;57789;53.868;10.728;2023-02-15T13:26:32;44.97;;;22.37;;
70367;SDS011;57789;53.868;10.728;2023-02-15T13:29:08;54.43;;;26.43;;
70367;SDS011;57789;53.868;10.728;2023-02-15T13:31:42;66.03;;;24.47;;
70367;SDS011;57789;53.868;10.728;2023-02-15T13:34:10;67.37;;;26.83;;
70367;SDS011;57789;53.868;10.728;2023-02-15T13:37:33;68.60;;;34.97;;
70367;SDS011;57789;53.868;10.728;2023-02-15T13:53:09;57.43;;;30.27;;
70367;SDS011;57789;53.868;10.728;2023-02-15T13:56:10;50.70;;;27.07;;
70367;SDS011;57789;53.868;10.728;2023-02-15T14:01:16;42.80;;;23.23;;
70367;SDS011;57789;53.868;10.728;2023-02-15T14:06:50;42.23;;;21.97;;
70367;SDS011;57789;53.868;10.728;2023-02-15T14:20:22;58.20;;;24.53;;
70367;SDS011;57789;53.868;10.728;2023-02-15T14:26:03;43.17;;;22.67;;
70367;SDS011;57789;53.868;10.728;2023-02-15T14:31:28;52.33;;;27.17;;
70367;SDS011;57789;53.868;10.728;2023-02-15T14:33:59;45.30;;;23.40;;
70367;SDS011;57789;53.868;10.728;2023-02-15T14:36:25;56.33;;;27.13;;
70367;SDS011;57789;53.868;10.728;2023-02-15T14:42:07;56.20;;;28.23;;
70367;SDS011;57789;53.868;10.728;2023-02-15T14:45:01;69.37;;;34.90;;
70367;SDS011;57789;53.868;10.728;2023-02-15T14:47:45;69.43;;;30.30;;
70367;SDS011;57789;53.868;10.728;2023-02-15T14:53:55;105.03;;;47.90;;
70367;SDS011;57789;53.868;10.728;2023-02-15T14:58:34;110.03;;;46.30;;
70367;SDS011;57789;53.868;10.728;2023-02-15T15:01:09;105.80;;;46.70;;
70367;SDS011;57789;53.868;10.728;2023-02-15T15:03:35;83.57;;;36.63;;
70367;SDS011;57789;53.868;10.728;2023-02-15T15:06:20;82.30;;;29.97;;
70367;SDS011;57789;53.868;10.728;2023-02-15T15:08:58;62.37;;;29.60;;
70367;SDS011;57789;53.868;10.728;2023-02-15T15:11:53;73.33;;;36.47;;
70367;SDS011;57789;53.868;10.728;2023-02-15T15:16:58;69.37;;;34.13;;
70367;SDS011;57789;53.868;10.728;2023-02-15T15:20:00;61.03;;;29.60;;
70367;SDS011;57789;53.868;10.728;2023-02-15T15:22:21;66.93;;;30.70;;
70367;SDS011;57789;53.868;10.728;2023-02-15T15:24:56;70.07;;;35.07;;
70367;SDS011;57789;53.868;10.728;2023-02-15T15:27:45;72.67;;;30.53;;
70367;SDS011;57789;53.868;10.728;2023-02-15T15:32:49;73.90;;;32.97;;
70367;SDS011;57789;53.868;10.728;2023-02-15T15:50:13;117.83;;;38.47;;
70367;SDS011;57789;53.868;10.728;2023-02-15T15:52:43;90.20;;;35.50;;
70367;SDS011;57789;53.868;10.728;2023-02-15T15:55:16;96.23;;;40.57;;
70367;SDS011;57789;53.868;10.728;2023-02-15T15:57:45;82.13;;;38.23;;
70367;SDS011;57789;53.868;10.728;2023-02-15T16:03:16;113.70;;;41.63;;
70367;SDS011;57789;53.868;10.728;2023-02-15T16:05:49;107.43;;;33.93;;
70367;SDS011;57789;53.868;10.728;2023-02-15T16:08:27;144.37;;;34.17;;
70367;SDS011;57789;53.868;10.728;2023-02-15T16:10:55;75.70;;;31.40;;
70367;SDS011;57789;53.868;10.728;2023-02-15T16:13:23;90.40;;;33.80;;
70367;SDS011;57789;53.868;10.728;2023-02-15T16:15:52;70.57;;;30.53;;
70367;SDS011;57789;53.868;10.728;2023-02-15T16:18:21;109.77;;;29.73;;
70367;SDS011;57789;53.868;10.728;2023-02-15T16:20:59;148.13;;;30.63;;
70367;SDS011;57789;53.868;10.728;2023-02-15T16:28:53;64.03;;;29.07;;
70367;SDS011;57789;53.868;10.728;2023-02-15T16:31:20;84.87;;;30.17;;
70367;SDS011;57789;53.868;10.728;2023-02-15T16:33:52;63.07;;;29.87;;
70367;SDS011;57789;53.868;10.728;2023-02-15T16:36:26;74.10;;;34.97;;
70367;SDS011;57789;53.868;10.728;2023-02-15T16:41:28;66.17;;;31.63;;
70367;SDS011;57789;53.868;10.728;2023-02-15T16:43:58;89.10;;;38.27;;
70367;SDS011;57789;53.868;10.728;2023-02-15T16:46:30;67.90;;;30.63;;
70367;SDS011;57789;53.868;10.728;2023-02-15T16:48:59;92.07;;;32.83;;
70367;SDS011;57789;53.868;10.728;2023-02-15T16:51:29;96.03;;;45.47;;
70367;SDS011;57789;53.868;10.728;2023-02-15T16:53:57;105.80;;;38.40;;
70367;SDS011;57789;53.868;10.728;2023-02-15T16:56:30;70.07;;;32.53;;
70367;SDS011;57789;53.868;10.728;2023-02-15T16:58:57;87.77;;;37.57;;
70367;SDS011;57789;53.868;10.728;2023-02-15T17:01:26;66.57;;;32.17;;
70367;SDS011;57789;53.868;10.728;2023-02-15T17:09:51;118.70;;;34.57;;
70367;SDS011;57789;53.868;10.728;2023-02-15T17:18:05;81.30;;;27.70;;
70367;SDS011;57789;53.868;10.728;2023-02-15T17:20:45;57.07;;;28.77;;
70367;SDS011;57789;53.868;10.728;2023-02-15T17:26:22;51.00;;;27.03;;
70367;SDS011;57789;53.868;10.728;2023-02-15T17:28:50;67.87;;;30.60;;
70367;SDS011;57789;53.868;10.728;2023-02-15T17:31:24;60.27;;;28.00;;
70367;SDS011;57789;53.868;10.728;2023-02-15T17:33:53;52.37;;;26.60;;
70367;SDS011;57789;53.868;10.728;2023-02-15T17:36:21;56.90;;;28.67;;
70367;SDS011;57789;53.868;10.728;2023-02-15T17:41:27;74.03;;;33.70;;
70367;SDS011;57789;53.868;10.728;2023-02-15T17:43:52;53.37;;;28.43;;
70367;SDS011;57789;53.868;10.728;2023-02-15T17:46:18;257.07;;;34.83;;